Kolpasevo, Russia
Current Conditions -  °F | °C
As of 12:00 AM on Friday 24 Oct 2014 (Local Time) from UNTT Reporting Station
Overcast Overcast  
Wind Chill:   Ceiling: 6600
Heat Index: 19°   Visibility: 6mi
Dew Point: 12°   Wind: 11mph
Humidity: 74%   Direction: 60°ENE
Pressure: 29.88"   Gusts: NA
Location:  58.32°N, 82.95°E
Report Text: UNTT 231700Z 06005MPS 9999 SCT033 OVC066 M07/M11 Q1012 NOSIGRMK QFE744
Loading
Personal Weather Stations






























Interactive Weather Map
Tropical Storm Tracking
New forecast layout! Learn more

10-Day Weather Forecast

Advertisements
Track Severe Weather on mobile